Thunder radar more information blitzortung!


Radar de pluja more information rain snow radar


Visita la nostra xarxa de llocs de meteo:

Template documentation
and downloads

And another site



No particular awareness of the weather is required.    There are no Weather-warnings

Pagina Historial Weather Underground text

Diari Resum Novembre 20, 2017 Unitats:  Tant    Imperial   Mètric
« Previous Dia
SegĂźent Dia »
Diari Setmana Mensual Anual Personalitzada
  Maxima: Minima: Media:
Temperatura: 63.1 °F /  17.3 °C 39.4 °F /  4.1 °C 52.3 °F /  11.3 °C
Punt de rosada: 42.1 °F /  5.6 °C 30 °F /  -1.1 °C 36.3 °F /  2.4 °C
Humitat: 71 % 45 % 55 %
Wind Speed: 5.8 mph /  9.3 km/h - 1.5 mph /  2.4 km/h
RĂ fegues de vent: 5.8 mph /  9.3 km/h - -
Vent:- - South
Pression baro: 30.3 in /  1024.9 hPa 30.2 in /  1020.9 hPa -
Precipitacions: 0 in /  0.0 mm    
Historical Graphs
 
 
Dades de taula per Novembre 20, 2017
Temps Temperatura Punt de rosada Pression baro Vent Wind Speed RĂ fegues de vent Humitat Rainfall Rate (Hourly)
00:04 45.3 °F /  7.4 °C 33.1 °F /  0.6 °C 30.2 in /  1023.9 hPa Calm     62 % 0 in /  0.0 mm
00:10 39.9 °F /  4.4 °C 30.6 °F /  -0.8 °C 30.2 in /  1023.9 hPa Calm   2 mph /  3.2 km/h 69 % 0 in /  0.0 mm
00:20 39.7 °F /  4.3 °C 30.4 °F /  -0.9 °C 30.2 in /  1023.9 hPa Calm   2 mph /  3.2 km/h 69 % 0 in /  0.0 mm
00:30 39.7 °F /  4.3 °C 30.4 °F /  -0.9 °C 30.2 in /  1022.9 hPa Calm   1 mph /  1.6 km/h 69 % 0 in /  0.0 mm
00:40 39.4 °F /  4.1 °C 30 °F /  -1.1 °C 30.2 in /  1022.9 hPa Calm   2 mph /  3.2 km/h 69 % 0 in /  0.0 mm
00:50 39.6 °F /  4.2 °C 30.2 °F /  -1.0 °C 30.2 in /  1022.9 hPa WNW 1 mph /  1.6 km/h 2 mph /  3.2 km/h 69 % 0 in /  0.0 mm
01:00 39.6 °F /  4.2 °C 30.2 °F /  -1.0 °C 30.2 in /  1023.9 hPa Calm   2 mph /  3.2 km/h 69 % 0 in /  0.0 mm
01:30 39.6 °F /  4.2 °C 30.6 °F /  -0.8 °C 30.2 in /  1023.9 hPa NW 1 mph /  1.6 km/h 2 mph /  3.2 km/h 70 % 0 in /  0.0 mm
01:40 39.7 °F /  4.3 °C 30.7 °F /  -0.7 °C 30.2 in /  1022.9 hPa Calm   2 mph /  3.2 km/h 70 % 0 in /  0.0 mm
01:50 39.7 °F /  4.3 °C 31.1 °F /  -0.5 °C 30.2 in /  1022.9 hPa Calm   1 mph /  1.6 km/h 71 % 0 in /  0.0 mm
02:00 39.7 °F /  4.3 °C 31.1 °F /  -0.5 °C 30.2 in /  1022.9 hPa Calm   2 mph /  3.2 km/h 71 % 0 in /  0.0 mm
02:10 39.7 °F /  4.3 °C 30.7 °F /  -0.7 °C 30.2 in /  1022.9 hPa NNE 1 mph /  1.6 km/h 2 mph /  3.2 km/h 70 % 0 in /  0.0 mm
02:20 40.1 °F /  4.5 °C 31.1 °F /  -0.5 °C 30.2 in /  1022.9 hPa WNW 1 mph /  1.6 km/h 1 mph /  1.6 km/h 70 % 0 in /  0.0 mm
02:30 40.5 °F /  4.7 °C 31.8 °F /  -0.1 °C 30.2 in /  1023.9 hPa Calm   2 mph /  3.2 km/h 71 % 0 in /  0.0 mm
02:40 41 °F /  5.0 °C 32 °F /  0.0 °C 30.2 in /  1022.9 hPa WSW 1 mph /  1.6 km/h 2 mph /  3.2 km/h 70 % 0 in /  0.0 mm
02:50 41.7 °F /  5.4 °C 32.7 °F /  0.4 °C 30.2 in /  1022.9 hPa WSW 2 mph /  3.2 km/h 2 mph /  3.2 km/h 70 % 0 in /  0.0 mm
03:00 42.3 °F /  5.7 °C 33.3 °F /  0.7 °C 30.2 in /  1023.9 hPa SW 1 mph /  1.6 km/h 2 mph /  3.2 km/h 70 % 0 in /  0.0 mm
03:10 43.2 °F /  6.2 °C 33.6 °F /  0.9 °C 30.2 in /  1023.9 hPa SW 1 mph /  1.6 km/h 1 mph /  1.6 km/h 69 % 0 in /  0.0 mm
03:30 45.7 °F /  7.6 °C 35.2 °F /  1.8 °C 30.2 in /  1023.9 hPa SSE 1 mph /  1.6 km/h 1 mph /  1.6 km/h 67 % 0 in /  0.0 mm
03:40 45.7 °F /  7.6 °C 35.1 °F /  1.7 °C 30.2 in /  1023.9 hPa East 2 mph /  3.2 km/h 2 mph /  3.2 km/h 66 % 0 in /  0.0 mm
03:50 46.6 °F /  8.1 °C 35.4 °F /  1.9 °C 30.2 in /  1023.9 hPa NE 1 mph /  1.6 km/h 2 mph /  3.2 km/h 65 % 0 in /  0.0 mm
04:00 47.8 °F /  8.8 °C 36.1 °F /  2.3 °C 30.2 in /  1023.9 hPa NE 1 mph /  1.6 km/h 4 mph /  6.4 km/h 64 % 0 in /  0.0 mm
04:10 47.5 °F /  8.6 °C 35.4 °F /  1.9 °C 30.2 in /  1023.9 hPa NE 2 mph /  3.2 km/h 3 mph /  4.8 km/h 63 % 0 in /  0.0 mm
04:20 49.1 °F /  9.5 °C 37 °F /  2.8 °C 30.2 in /  1023.9 hPa Calm   2 mph /  3.2 km/h 63 % 0 in /  0.0 mm
04:30 50 °F /  10.0 °C 37.6 °F /  3.1 °C 30.2 in /  1023.9 hPa ENE 1 mph /  1.6 km/h 2 mph /  3.2 km/h 62 % 0 in /  0.0 mm
04:40 51.3 °F /  10.7 °C 38.7 °F /  3.7 °C 30.3 in /  1024.9 hPa ENE 1 mph /  1.6 km/h 2 mph /  3.2 km/h 62 % 0 in /  0.0 mm
10:41 52.5 °F /  11.4 °C 39 °F /  3.9 °C 30.3 in /  1024.9 hPa ESE 2.3 mph /  3.7 km/h 2.3 mph /  3.7 km/h 60 % 0 in /  0.0 mm
10:46 52.5 °F /  11.4 °C 39 °F /  3.9 °C 30.3 in /  1024.9 hPa East 2.6 mph /  4.2 km/h 2.6 mph /  4.2 km/h 60 % 0 in /  0.0 mm
11:01 52.9 °F /  11.6 °C 38.8 °F /  3.8 °C 30.3 in /  1024.9 hPa ENE 2.3 mph /  3.7 km/h 2.3 mph /  3.7 km/h 59 % 0 in /  0.0 mm
11:06 52.9 °F /  11.6 °C 38.5 °F /  3.6 °C 30.3 in /  1024.9 hPa NNE 2.3 mph /  3.7 km/h 2.3 mph /  3.7 km/h 58 % 0 in /  0.0 mm
11:16 53.4 °F /  11.9 °C 39 °F /  3.9 °C 30.3 in /  1024.9 hPa NE 2.3 mph /  3.7 km/h 2.3 mph /  3.7 km/h 58 % 0 in /  0.0 mm
11:21 54 °F /  12.2 °C 39.6 °F /  4.2 °C 30.3 in /  1024.9 hPa NNE 1.2 mph /  1.9 km/h 1.2 mph /  1.9 km/h 58 % 0 in /  0.0 mm
11:36 54.9 °F /  12.7 °C 39.9 °F /  4.4 °C 30.3 in /  1024.9 hPa ENE 2.4 mph /  3.9 km/h 2.4 mph /  3.9 km/h 57 % 0 in /  0.0 mm
11:46 55.2 °F /  12.9 °C 40.3 °F /  4.6 °C 30.3 in /  1024.9 hPa NE 2.3 mph /  3.7 km/h 2.3 mph /  3.7 km/h 57 % 0 in /  0.0 mm
11:51 55.2 °F /  12.9 °C 40.3 °F /  4.6 °C 30.3 in /  1024.9 hPa ENE 2.3 mph /  3.7 km/h 2.3 mph /  3.7 km/h 57 % 0 in /  0.0 mm
12:11 56.5 °F /  13.6 °C 41 °F /  5.0 °C 30.3 in /  1024.9 hPa NW 2.6 mph /  4.2 km/h 2.6 mph /  4.2 km/h 56 % 0 in /  0.0 mm
12:16 56.7 °F /  13.7 °C 41.2 °F /  5.1 °C 30.3 in /  1024.9 hPa NNW 2.3 mph /  3.7 km/h 2.3 mph /  3.7 km/h 56 % 0 in /  0.0 mm
12:21 57.2 °F /  14.0 °C 41.5 °F /  5.3 °C 30.2 in /  1023.9 hPa NNE 1.4 mph /  2.3 km/h   56 % 0 in /  0.0 mm
12:26 57.6 °F /  14.2 °C 41.5 °F /  5.3 °C 30.2 in /  1023.9 hPa NNW 1.2 mph /  1.9 km/h   55 % 0 in /  0.0 mm
12:31 57.4 °F /  14.1 °C 41.4 °F /  5.2 °C 30.2 in /  1023.9 hPa ENE 2.6 mph /  4.2 km/h 2.6 mph /  4.2 km/h 55 % 0 in /  0.0 mm
12:36 57.4 °F /  14.1 °C 40.8 °F /  4.9 °C 30.2 in /  1022.9 hPa NE 2.3 mph /  3.7 km/h   54 % 0 in /  0.0 mm
12:41 57.6 °F /  14.2 °C 41 °F /  5.0 °C 30.2 in /  1022.9 hPa NNE 2.6 mph /  4.2 km/h 2.6 mph /  4.2 km/h 54 % 0 in /  0.0 mm
12:56 57.9 °F /  14.4 °C 40.8 °F /  4.9 °C 30.2 in /  1022.9 hPa East 3.5 mph /  5.6 km/h 3.5 mph /  5.6 km/h 53 % 0 in /  0.0 mm
13:21 59 °F /  15.0 °C 41.9 °F /  5.5 °C 30.2 in /  1022.9 hPa NE 2.4 mph /  3.9 km/h   53 % 0 in /  0.0 mm
13:36 59 °F /  15.0 °C 41.4 °F /  5.2 °C 30.2 in /  1022.9 hPa ENE 3.5 mph /  5.6 km/h 3.5 mph /  5.6 km/h 52 % 0 in /  0.0 mm
13:41 59.4 °F /  15.2 °C 41.7 °F /  5.4 °C 30.2 in /  1022.9 hPa NNE 2.4 mph /  3.9 km/h 2.4 mph /  3.9 km/h 52 % 0 in /  0.0 mm
13:51 59.5 °F /  15.3 °C 41.4 °F /  5.2 °C 30.2 in /  1022.9 hPa ESE 4.6 mph /  7.4 km/h 4.6 mph /  7.4 km/h 51 % 0 in /  0.0 mm
13:56 59.7 °F /  15.4 °C 41.5 °F /  5.3 °C 30.2 in /  1022.9 hPa ENE 2.3 mph /  3.7 km/h 2.3 mph /  3.7 km/h 51 % 0 in /  0.0 mm
14:01 59.7 °F /  15.4 °C 41.5 °F /  5.3 °C 30.2 in /  1022.9 hPa NNE 3.3 mph /  5.3 km/h 3.3 mph /  5.3 km/h 51 % 0 in /  0.0 mm
14:06 59.5 °F /  15.3 °C 41.4 °F /  5.2 °C 30.2 in /  1022.9 hPa NNW 2.3 mph /  3.7 km/h 2.3 mph /  3.7 km/h 51 % 0 in /  0.0 mm
14:11 59.9 °F /  15.5 °C 41.2 °F /  5.1 °C 30.2 in /  1022.9 hPa NE 2.3 mph /  3.7 km/h 2.3 mph /  3.7 km/h 50 % 0 in /  0.0 mm
14:16 59.9 °F /  15.5 °C 41.2 °F /  5.1 °C 30.2 in /  1022.9 hPa East 2.3 mph /  3.7 km/h 2.3 mph /  3.7 km/h 50 % 0 in /  0.0 mm
14:21 60.1 °F /  15.6 °C 40.8 °F /  4.9 °C 30.2 in /  1022.9 hPa ESE 5.8 mph /  9.3 km/h 5.8 mph /  9.3 km/h 49 % 0 in /  0.0 mm
14:36 61 °F /  16.1 °C 41.7 °F /  5.4 °C 30.2 in /  1022.9 hPa ESE 2.3 mph /  3.7 km/h 2.3 mph /  3.7 km/h 49 % 0 in /  0.0 mm
14:42 60.8 °F /  16.0 °C 41.5 °F /  5.3 °C 30.2 in /  1022.9 hPa East 2.3 mph /  3.7 km/h 2.3 mph /  3.7 km/h 49 % 0 in /  0.0 mm
14:52 60.6 °F /  15.9 °C 40.8 °F /  4.9 °C 30.2 in /  1021.9 hPa ESE 3.5 mph /  5.6 km/h 3.5 mph /  5.6 km/h 48 % 0 in /  0.0 mm
14:57 60.8 °F /  16.0 °C 41 °F /  5.0 °C 30.2 in /  1021.9 hPa ESE 3.5 mph /  5.6 km/h 3.5 mph /  5.6 km/h 48 % 0 in /  0.0 mm
15:02 61 °F /  16.1 °C 41.2 °F /  5.1 °C 30.2 in /  1022.9 hPa SSE 1.2 mph /  1.9 km/h   48 % 0 in /  0.0 mm
15:07 61 °F /  16.1 °C 41.2 °F /  5.1 °C 30.2 in /  1022.9 hPa NE 1.6 mph /  2.6 km/h 1.6 mph /  2.6 km/h 48 % 0 in /  0.0 mm
15:12 61 °F /  16.1 °C 40.6 °F /  4.8 °C 30.2 in /  1022.9 hPa East 3.5 mph /  5.6 km/h 3.5 mph /  5.6 km/h 47 % 0 in /  0.0 mm
15:17 61 °F /  16.1 °C 40.6 °F /  4.8 °C 30.2 in /  1022.9 hPa SE 3.5 mph /  5.6 km/h 3.5 mph /  5.6 km/h 47 % 0 in /  0.0 mm
15:22 61.2 °F /  16.2 °C 40.8 °F /  4.9 °C 30.2 in /  1022.9 hPa ENE 2.3 mph /  3.7 km/h 2.3 mph /  3.7 km/h 47 % 0 in /  0.0 mm
15:32 61.7 °F /  16.5 °C 41.4 °F /  5.2 °C 30.2 in /  1022.9 hPa SSE 1.2 mph /  1.9 km/h   47 % 0 in /  0.0 mm
15:37 61.7 °F /  16.5 °C 41.7 °F /  5.4 °C 30.2 in /  1022.9 hPa Calm     48 % 0 in /  0.0 mm
15:47 61.5 °F /  16.4 °C 41.2 °F /  5.1 °C 30.2 in /  1022.9 hPa East 1.2 mph /  1.9 km/h   47 % 0 in /  0.0 mm
15:52 61.9 °F /  16.6 °C 41.4 °F /  5.2 °C 30.2 in /  1022.9 hPa East 1.6 mph /  2.6 km/h 1.6 mph /  2.6 km/h 47 % 0 in /  0.0 mm
15:57 61.9 °F /  16.6 °C 41.4 °F /  5.2 °C 30.2 in /  1022.9 hPa Calm     47 % 0 in /  0.0 mm
16:02 61.9 °F /  16.6 °C 41.4 °F /  5.2 °C 30.2 in /  1022.9 hPa NW 1.6 mph /  2.6 km/h 1.6 mph /  2.6 km/h 47 % 0 in /  0.0 mm
16:12 62.4 °F /  16.9 °C 41.9 °F /  5.5 °C 30.2 in /  1022.9 hPa WSW 2.3 mph /  3.7 km/h 2.3 mph /  3.7 km/h 47 % 0 in /  0.0 mm
16:27 63.1 °F /  17.3 °C 42.1 °F /  5.6 °C 30.2 in /  1022.9 hPa SW 2.4 mph /  3.9 km/h 2.4 mph /  3.9 km/h 46 % 0 in /  0.0 mm
16:42 63.1 °F /  17.3 °C 41.4 °F /  5.2 °C 30.2 in /  1021.9 hPa SW 1.2 mph /  1.9 km/h   45 % 0 in /  0.0 mm
16:47 62.6 °F /  17.0 °C 40.8 °F /  4.9 °C 30.2 in /  1021.9 hPa Calm     45 % 0 in /  0.0 mm
16:52 62.6 °F /  17.0 °C 40.8 °F /  4.9 °C 30.2 in /  1021.9 hPa SW 1.2 mph /  1.9 km/h 1.2 mph /  1.9 km/h 45 % 0 in /  0.0 mm
16:57 62.6 °F /  17.0 °C 40.8 °F /  4.9 °C 30.2 in /  1021.9 hPa SW 1.2 mph /  1.9 km/h 1.2 mph /  1.9 km/h 45 % 0 in /  0.0 mm
17:02 62.2 °F /  16.8 °C 41.7 °F /  5.4 °C 30.2 in /  1022.9 hPa Calm     47 % 0 in /  0.0 mm
17:07 61.7 °F /  16.5 °C 41.7 °F /  5.4 °C 30.2 in /  1022.9 hPa WSW 2.3 mph /  3.7 km/h 2.3 mph /  3.7 km/h 48 % 0 in /  0.0 mm
17:17 59.7 °F /  15.4 °C 39.9 °F /  4.4 °C 30.2 in /  1022.9 hPa Calm     48 % 0 in /  0.0 mm
17:27 58.8 °F /  14.9 °C 39.2 °F /  4.0 °C 30.2 in /  1022.9 hPa Calm     48 % 0 in /  0.0 mm
17:32 58.3 °F /  14.6 °C 38.7 °F /  3.7 °C 30.2 in /  1022.9 hPa WSW 2.3 mph /  3.7 km/h 2.3 mph /  3.7 km/h 48 % 0 in /  0.0 mm
17:37 57.7 °F /  14.3 °C 38.1 °F /  3.4 °C 30.2 in /  1022.9 hPa WSW 2.3 mph /  3.7 km/h 2.3 mph /  3.7 km/h 48 % 0 in /  0.0 mm
17:47 57 °F /  13.9 °C 37.6 °F /  3.1 °C 30.2 in /  1022.9 hPa West 2.3 mph /  3.7 km/h 2.3 mph /  3.7 km/h 48 % 0 in /  0.0 mm
17:52 56.7 °F /  13.7 °C 37.2 °F /  2.9 °C 30.2 in /  1022.9 hPa WSW 2.9 mph /  4.7 km/h 2.9 mph /  4.7 km/h 48 % 0 in /  0.0 mm
17:57 56.3 °F /  13.5 °C 36.9 °F /  2.7 °C 30.2 in /  1022.9 hPa SW 3.5 mph /  5.6 km/h 3.5 mph /  5.6 km/h 48 % 0 in /  0.0 mm
18:07 55.9 °F /  13.3 °C 37 °F /  2.8 °C 30.2 in /  1021.9 hPa SW 2.4 mph /  3.9 km/h 2.4 mph /  3.9 km/h 49 % 0 in /  0.0 mm
18:12 55.8 °F /  13.2 °C 36.9 °F /  2.7 °C 30.2 in /  1021.9 hPa WSW 2.3 mph /  3.7 km/h 2.3 mph /  3.7 km/h 49 % 0 in /  0.0 mm
18:17 55.6 °F /  13.1 °C 36.7 °F /  2.6 °C 30.2 in /  1021.9 hPa West 2.3 mph /  3.7 km/h 2.3 mph /  3.7 km/h 49 % 0 in /  0.0 mm
18:22 55.4 °F /  13.0 °C 36.5 °F /  2.5 °C 30.2 in /  1021.9 hPa West 3.5 mph /  5.6 km/h 3.5 mph /  5.6 km/h 49 % 0 in /  0.0 mm
18:27 55 °F /  12.8 °C 36.1 °F /  2.3 °C 30.2 in /  1021.9 hPa West 3.5 mph /  5.6 km/h 3.5 mph /  5.6 km/h 49 % 0 in /  0.0 mm
18:32 55 °F /  12.8 °C 36.1 °F /  2.3 °C 30.2 in /  1021.9 hPa WSW 3.5 mph /  5.6 km/h 3.5 mph /  5.6 km/h 49 % 0 in /  0.0 mm
18:37 54.9 °F /  12.7 °C 36 °F /  2.2 °C 30.2 in /  1021.9 hPa West 3.1 mph /  5.0 km/h 3.1 mph /  5.0 km/h 49 % 0 in /  0.0 mm
18:42 54.9 °F /  12.7 °C 36 °F /  2.2 °C 30.2 in /  1021.9 hPa WSW 2.4 mph /  3.9 km/h 2.4 mph /  3.9 km/h 49 % 0 in /  0.0 mm
18:47 54.7 °F /  12.6 °C 36 °F /  2.2 °C 30.2 in /  1021.9 hPa West 3.5 mph /  5.6 km/h 3.5 mph /  5.6 km/h 49 % 0 in /  0.0 mm
18:57 54.3 °F /  12.4 °C 35.4 °F /  1.9 °C 30.2 in /  1021.9 hPa WSW 3.3 mph /  5.3 km/h 3.3 mph /  5.3 km/h 49 % 0 in /  0.0 mm
19:02 54.1 °F /  12.3 °C 36 °F /  2.2 °C 30.2 in /  1021.9 hPa SW 2.3 mph /  3.7 km/h 2.3 mph /  3.7 km/h 50 % 0 in /  0.0 mm
19:13 53.8 °F /  12.1 °C 35.6 °F /  2.0 °C 30.2 in /  1021.9 hPa WSW 2.4 mph /  3.9 km/h 2.4 mph /  3.9 km/h 50 % 0 in /  0.0 mm
19:33 53.1 °F /  11.7 °C 34.9 °F /  1.6 °C 30.2 in /  1022.9 hPa SW 2.3 mph /  3.7 km/h 2.3 mph /  3.7 km/h 50 % 0 in /  0.0 mm
19:38 52.9 °F /  11.6 °C 34.7 °F /  1.5 °C 30.2 in /  1022.9 hPa SW 1.4 mph /  2.3 km/h 1.4 mph /  2.3 km/h 50 % 0 in /  0.0 mm
19:43 52.7 °F /  11.5 °C 35.1 °F /  1.7 °C 30.2 in /  1022.9 hPa Calm     51 % 0 in /  0.0 mm
19:45 52.7 °F /  11.5 °C 35.1 °F /  1.7 °C 30.2 in /  1022.9 hPa Calm     51 % 0 in /  0.0 mm
20:00 52.2 °F /  11.2 °C 34.5 °F /  1.4 °C 30.2 in /  1022.9 hPa Calm     51 % 0 in /  0.0 mm
20:10 52.5 °F /  11.4 °C 34.9 °F /  1.6 °C 30.2 in /  1022.9 hPa WSW 2.3 mph /  3.7 km/h 2.3 mph /  3.7 km/h 51 % 0 in /  0.0 mm
20:20 52.2 °F /  11.2 °C 34.5 °F /  1.4 °C 30.2 in /  1022.9 hPa Calm     51 % 0 in /  0.0 mm
20:25 52 °F /  11.1 °C 34.9 °F /  1.6 °C 30.2 in /  1022.9 hPa Calm     52 % 0 in /  0.0 mm
20:40 50.9 °F /  10.5 °C 34 °F /  1.1 °C 30.2 in /  1022.9 hPa Calm     52 % 0 in /  0.0 mm
20:45 50.7 °F /  10.4 °C 33.6 °F /  0.9 °C 30.2 in /  1022.9 hPa Calm     52 % 0 in /  0.0 mm
20:50 50.4 °F /  10.2 °C 33.4 °F /  0.8 °C 30.2 in /  1022.9 hPa Calm     52 % 0 in /  0.0 mm
20:55 50.4 °F /  10.2 °C 34 °F /  1.1 °C 30.2 in /  1022.9 hPa Calm     53 % 0 in /  0.0 mm
21:00 50.2 °F /  10.1 °C 33.6 °F /  0.9 °C 30.2 in /  1022.9 hPa WNW 1.4 mph /  2.3 km/h 1.4 mph /  2.3 km/h 53 % 0 in /  0.0 mm
21:05 50.4 °F /  10.2 °C 34 °F /  1.1 °C 30.2 in /  1022.9 hPa SW 2.3 mph /  3.7 km/h 2.3 mph /  3.7 km/h 53 % 0 in /  0.0 mm
21:16 50 °F /  10.0 °C 33.4 °F /  0.8 °C 30.2 in /  1022.9 hPa WSW 1.2 mph /  1.9 km/h   53 % 0 in /  0.0 mm
21:31 49.6 °F /  9.8 °C 33.3 °F /  0.7 °C 30.2 in /  1023.9 hPa WSW 1.2 mph /  1.9 km/h   53 % 0 in /  0.0 mm
21:36 49.5 °F /  9.7 °C 33.1 °F /  0.6 °C 30.2 in /  1022.9 hPa Calm     53 % 0 in /  0.0 mm
21:41 49.3 °F /  9.6 °C 32.9 °F /  0.5 °C 30.2 in /  1022.9 hPa Calm     53 % 0 in /  0.0 mm
21:46 48.9 °F /  9.4 °C 32.5 °F /  0.3 °C 30.2 in /  1022.9 hPa WSW 2.3 mph /  3.7 km/h 2.3 mph /  3.7 km/h 53 % 0 in /  0.0 mm
21:51 48.7 °F /  9.3 °C 32.7 °F /  0.4 °C 30.2 in /  1023.9 hPa West 2.3 mph /  3.7 km/h   54 % 0 in /  0.0 mm
21:56 48.6 °F /  9.2 °C 32.7 °F /  0.4 °C 30.2 in /  1023.9 hPa Calm     54 % 0 in /  0.0 mm
22:01 48.2 °F /  9.0 °C 32.4 °F /  0.2 °C 30.2 in /  1023.9 hPa Calm     54 % 0 in /  0.0 mm
22:11 48 °F /  8.9 °C 32.2 °F /  0.1 °C 30.2 in /  1022.9 hPa Calm     54 % 0 in /  0.0 mm
22:31 47.8 °F /  8.8 °C 32.4 °F /  0.2 °C 30.2 in /  1022.9 hPa Calm     55 % 0 in /  0.0 mm
22:36 47.7 °F /  8.7 °C 32.4 °F /  0.2 °C 30.2 in /  1022.9 hPa Calm     55 % 0 in /  0.0 mm
22:41 47.5 °F /  8.6 °C 32.2 °F /  0.1 °C 30.2 in /  1022.9 hPa Calm     55 % 0 in /  0.0 mm
22:46 47.3 °F /  8.5 °C 31.8 °F /  -0.1 °C 30.2 in /  1022.9 hPa Calm     55 % 0 in /  0.0 mm
22:51 47.3 °F /  8.5 °C 31.8 °F /  -0.1 °C 30.2 in /  1023.9 hPa Calm     55 % 0 in /  0.0 mm
23:01 47.5 °F /  8.6 °C 32.5 °F /  0.3 °C 30.2 in /  1023.9 hPa Calm     56 % 0 in /  0.0 mm
23:06 47.3 °F /  8.5 °C 32.4 °F /  0.2 °C 30.2 in /  1022.9 hPa Calm     56 % 0 in /  0.0 mm
23:11 47.1 °F /  8.4 °C 32.2 °F /  0.1 °C 30.2 in /  1022.9 hPa Calm     56 % 0 in /  0.0 mm
23:16 46.9 °F /  8.3 °C 32.5 °F /  0.3 °C 30.2 in /  1022.9 hPa NNE 1.6 mph /  2.6 km/h 1.6 mph /  2.6 km/h 57 % 0 in /  0.0 mm
23:21 46.6 °F /  8.1 °C 32.2 °F /  0.1 °C 30.2 in /  1022.9 hPa NNE 1.2 mph /  1.9 km/h   57 % 0 in /  0.0 mm
23:26 46.2 °F /  7.9 °C 31.8 °F /  -0.1 °C 30.2 in /  1022.9 hPa WSW 2.3 mph /  3.7 km/h 2.3 mph /  3.7 km/h 57 % 0 in /  0.0 mm
23:36 45.5 °F /  7.5 °C 31.6 °F /  -0.2 °C 30.2 in /  1023.9 hPa WSW 1.6 mph /  2.6 km/h   58 % 0 in /  0.0 mm
23:40 43 °F /  6.1 °C 30 °F /  -1.1 °C 30.2 in /  1020.9 hPa NNW 1 mph /  1.6 km/h 2 mph /  3.2 km/h 60 % 0 in /  0.0 mm
23:41 45.3 °F /  7.4 °C 31.5 °F /  -0.3 °C 30.2 in /  1023.9 hPa Calm     58 % 0 in /  0.0 mm
23:50 43 °F /  6.1 °C 30 °F /  -1.1 °C 30.2 in /  1020.9 hPa NNW 1 mph /  1.6 km/h 2 mph /  3.2 km/h 60 % 0 in /  0.0 mm
23:52 45 °F /  7.2 °C 31.5 °F /  -0.3 °C 30.2 in /  1023.9 hPa Calm     59 % 0 in /  0.0 mm
23:57 44.8 °F /  7.1 °C 31.3 °F /  -0.4 °C 30.2 in /  1023.9 hPa Calm     59 % 0 in /  0.0 mm
23:58 44.8 °F /  7.1 °C 30.9 °F /  -0.6 °C 30.2 in /  1023.9 hPa Calm     58 % 0 in /  0.0 mm
Meteo Sesrovires
Elogis d' Weather Underground - 3.25 mb

Guio original per  Jim McMurry - jmcmurry@mwt.net Adaptat per a la plantilla per  Wim van der Kuil - Leuven-Template.eu

Trobareu la nostra informacio del temps tambe a:

Weather Underground

AWEKAS